createdAt,value
2022-12-31T00:02:19.795Z,35.75
2022-12-31T00:04:48.920Z,32.67
2022-12-31T00:07:16.534Z,35.67
2022-12-31T00:09:44.297Z,37.22
2022-12-31T00:12:12.315Z,33.63
2022-12-31T00:14:40.443Z,34.65
2022-12-31T00:17:08.507Z,36.35
2022-12-31T00:19:36.551Z,36.13
2022-12-31T00:22:05.588Z,36.67
2022-12-31T00:24:33.733Z,31.35
2022-12-31T00:27:01.663Z,32.33
2022-12-31T00:29:29.278Z,34.03
2022-12-31T00:31:56.992Z,39.88
2022-12-31T00:34:25.079Z,36.70
2022-12-31T00:36:53.311Z,42.50
2022-12-31T00:39:22.725Z,34.90
2022-12-31T00:41:50.512Z,30.00
2022-12-31T00:44:18.359Z,35.17
2022-12-31T00:46:46.075Z,39.75
2022-12-31T00:49:13.781Z,39.42
2022-12-31T00:51:41.563Z,31.42
2022-12-31T00:54:09.332Z,29.13
2022-12-31T00:56:39.295Z,29.80
2022-12-31T00:59:06.968Z,28.63
2022-12-31T01:01:36.863Z,32.15
2022-12-31T01:04:07.501Z,32.20
2022-12-31T01:06:36.664Z,32.05
2022-12-31T01:09:05.005Z,34.63
2022-12-31T01:11:33.824Z,33.38
2022-12-31T01:14:06.829Z,35.47
2022-12-31T01:16:37.351Z,38.75
2022-12-31T01:19:09.293Z,31.13
2022-12-31T01:21:38.599Z,37.67
2022-12-31T01:24:07.333Z,32.05
2022-12-31T01:26:35.827Z,30.25
2022-12-31T01:29:05.645Z,28.92
2022-12-31T01:31:34.072Z,30.45
2022-12-31T01:34:03.101Z,29.92
2022-12-31T01:36:32.684Z,30.73
2022-12-31T01:39:01.718Z,32.42
2022-12-31T01:41:31.247Z,34.08
2022-12-31T01:44:00.747Z,35.22
2022-12-31T01:46:36.805Z,27.35
2022-12-31T01:49:09.488Z,30.50
2022-12-31T01:51:40.810Z,28.88
2022-12-31T01:54:10.792Z,28.65
2022-12-31T01:56:41.885Z,36.38
2022-12-31T01:59:11.147Z,39.92
2022-12-31T02:01:40.241Z,31.75
2022-12-31T02:04:12.130Z,28.23
2022-12-31T02:06:45.884Z,29.63
2022-12-31T02:09:13.653Z,27.65
2022-12-31T02:11:41.705Z,27.52
2022-12-31T02:14:15.579Z,27.02
2022-12-31T02:16:53.872Z,29.83
2022-12-31T02:19:48.235Z,29.25
2022-12-31T02:22:27.985Z,30.17
2022-12-31T02:25:16.743Z,30.90
2022-12-31T02:27:55.879Z,33.25
2022-12-31T02:30:26.468Z,31.58
2022-12-31T02:33:04.369Z,31.00
2022-12-31T02:35:37.492Z,29.15
2022-12-31T02:38:11.121Z,28.30
2022-12-31T02:40:39.767Z,27.67
2022-12-31T02:43:07.438Z,28.00
2022-12-31T02:45:39.415Z,28.00
2022-12-31T02:48:33.578Z,30.30
2022-12-31T02:51:16.091Z,28.15
2022-12-31T02:54:07.556Z,30.90
2022-12-31T02:56:41.608Z,29.58
2022-12-31T02:59:15.904Z,28.55
2022-12-31T03:01:49.607Z,29.02
2022-12-31T03:04:18.292Z,41.30
2022-12-31T03:06:46.875Z,54.03
2022-12-31T03:09:16.544Z,67.72
2022-12-31T03:11:44.449Z,46.22
2022-12-31T03:14:12.270Z,37.00
2022-12-31T03:16:40.079Z,38.30
2022-12-31T03:19:09.261Z,34.03
2022-12-31T03:21:39.166Z,33.33
2022-12-31T03:24:07.107Z,29.88
2022-12-31T03:26:35.003Z,31.88
2022-12-31T03:29:02.666Z,31.00
2022-12-31T03:31:30.512Z,29.98
2022-12-31T03:33:58.297Z,30.25
2022-12-31T03:36:27.487Z,30.77
2022-12-31T03:38:55.174Z,31.42
2022-12-31T03:41:24.505Z,29.63
2022-12-31T03:43:52.280Z,31.02
2022-12-31T03:46:20.176Z,34.15
2022-12-31T03:48:50.136Z,42.05
2022-12-31T03:51:17.872Z,29.08
2022-12-31T03:53:46.839Z,26.83
2022-12-31T03:56:14.714Z,28.27
2022-12-31T03:58:42.431Z,29.05
2022-12-31T04:01:10.086Z,29.92
2022-12-31T04:03:37.945Z,27.80
2022-12-31T04:06:05.930Z,26.77
2022-12-31T04:08:33.576Z,28.45
2022-12-31T04:11:02.881Z,27.92
2022-12-31T04:13:30.700Z,27.48
2022-12-31T04:15:58.255Z,28.58
2022-12-31T04:18:25.973Z,32.67
2022-12-31T04:20:53.706Z,30.02
2022-12-31T04:23:21.328Z,25.77
2022-12-31T04:25:49.198Z,23.27
2022-12-31T04:28:18.285Z,26.95
2022-12-31T04:30:45.972Z,27.58
2022-12-31T04:33:13.783Z,30.85
2022-12-31T04:35:41.473Z,34.15
2022-12-31T04:38:09.157Z,47.97
2022-12-31T04:40:36.902Z,39.13
2022-12-31T04:43:04.703Z,35.25
2022-12-31T04:45:33.895Z,28.02
2022-12-31T04:48:01.616Z,28.13
2022-12-31T04:50:29.467Z,28.80
2022-12-31T04:52:57.449Z,31.40
2022-12-31T04:55:28.201Z,32.53
2022-12-31T04:57:55.997Z,29.40
2022-12-31T05:00:23.725Z,26.27
2022-12-31T05:02:56.534Z,29.60
2022-12-31T05:05:24.380Z,29.15
2022-12-31T05:07:52.112Z,28.60
2022-12-31T05:10:20.002Z,29.77
2022-12-31T05:12:48.003Z,28.58
2022-12-31T05:15:15.810Z,28.60
2022-12-31T05:17:43.732Z,29.00
2022-12-31T05:20:12.960Z,31.45
2022-12-31T05:22:40.515Z,35.03
2022-12-31T05:25:09.261Z,31.73
2022-12-31T05:27:37.858Z,36.83
2022-12-31T05:30:06.946Z,33.40
2022-12-31T05:32:35.410Z,30.63
2022-12-31T05:35:03.552Z,32.58
2022-12-31T05:37:32.704Z,35.15
2022-12-31T05:40:00.887Z,61.58
2022-12-31T05:42:28.908Z,71.47
2022-12-31T05:44:56.564Z,59.20
2022-12-31T05:47:24.925Z,52.20
2022-12-31T05:49:52.712Z,46.20
2022-12-31T05:52:20.787Z,41.45
2022-12-31T05:54:50.039Z,37.33
2022-12-31T05:57:18.035Z,35.13
2022-12-31T05:59:46.548Z,35.83
2022-12-31T06:02:14.316Z,48.22
2022-12-31T06:04:42.035Z,40.33
2022-12-31T06:07:09.586Z,37.78
2022-12-31T06:09:37.296Z,39.40
2022-12-31T06:12:07.493Z,37.35
2022-12-31T06:14:37.627Z,53.28
2022-12-31T06:17:08.943Z,71.45
2022-12-31T06:19:37.659Z,68.05
2022-12-31T06:22:06.038Z,58.78
2022-12-31T06:24:35.073Z,70.40
2022-12-31T06:27:02.943Z,48.35
2022-12-31T06:29:32.568Z,42.05
2022-12-31T06:32:00.418Z,43.33
2022-12-31T06:34:28.287Z,42.20
2022-12-31T06:36:55.857Z,40.83
2022-12-31T06:39:24.639Z,42.08
2022-12-31T06:41:52.287Z,43.78
2022-12-31T06:44:19.864Z,40.17
2022-12-31T06:49:20.371Z,40.95
2022-12-31T06:51:48.039Z,40.90
2022-12-31T06:54:15.762Z,42.72
2022-12-31T06:56:44.067Z,56.90
2022-12-31T06:59:23.508Z,73.38
2022-12-31T07:02:16.568Z,63.75
2022-12-31T07:05:07.569Z,56.78
2022-12-31T07:07:45.268Z,64.27
2022-12-31T07:10:24.108Z,54.97
2022-12-31T07:13:11.382Z,48.78
2022-12-31T07:16:07.826Z,62.90
2022-12-31T07:18:45.351Z,63.03
2022-12-31T07:21:19.044Z,76.05
2022-12-31T07:23:47.195Z,65.93
2022-12-31T07:26:22.050Z,65.65
2022-12-31T07:29:00.790Z,61.67
2022-12-31T07:31:38.136Z,62.10
2022-12-31T07:34:19.250Z,56.35
2022-12-31T07:37:03.412Z,54.30
2022-12-31T07:39:42.133Z,56.20
2022-12-31T07:42:16.655Z,56.65
2022-12-31T07:45:04.661Z,52.72
2022-12-31T07:47:33.300Z,63.28
2022-12-31T07:50:03.237Z,62.05
2022-12-31T07:52:31.796Z,55.38
2022-12-31T07:54:59.737Z,50.70
2022-12-31T07:57:34.542Z,55.53
2022-12-31T08:00:08.066Z,57.13
2022-12-31T08:02:57.111Z,56.75
2022-12-31T08:05:33.995Z,59.15
2022-12-31T08:08:13.319Z,57.35
2022-12-31T08:10:52.355Z,54.35
2022-12-31T08:13:21.064Z,53.17
2022-12-31T08:15:49.290Z,51.25
2022-12-31T08:18:17.383Z,52.25
2022-12-31T08:20:57.970Z,80.90
2022-12-31T08:23:32.120Z,88.72
2022-12-31T08:26:11.857Z,75.43
2022-12-31T08:28:56.316Z,66.82
2022-12-31T08:31:31.679Z,78.35
2022-12-31T08:34:08.453Z,55.35
2022-12-31T08:36:48.344Z,57.33
2022-12-31T08:39:28.285Z,49.97
2022-12-31T08:41:58.709Z,44.58
2022-12-31T08:44:33.409Z,39.22
2022-12-31T08:47:09.573Z,37.55
2022-12-31T08:49:37.974Z,42.95
2022-12-31T08:52:15.501Z,44.15
2022-12-31T08:54:44.085Z,44.17
2022-12-31T08:57:26.273Z,45.92
2022-12-31T09:00:02.329Z,51.47
2022-12-31T09:02:48.828Z,48.40
2022-12-31T09:05:22.906Z,47.13
2022-12-31T09:08:04.142Z,39.28
2022-12-31T09:13:14.852Z,39.85
2022-12-31T09:15:47.159Z,38.42
2022-12-31T09:18:15.211Z,37.17
2022-12-31T09:20:44.641Z,39.53
2022-12-31T09:23:14.704Z,38.45
2022-12-31T09:25:51.885Z,36.85
2022-12-31T09:28:37.568Z,35.30
2022-12-31T09:31:11.474Z,37.65
2022-12-31T09:33:47.301Z,35.17
2022-12-31T09:36:21.524Z,32.80
2022-12-31T09:38:59.801Z,28.52
2022-12-31T09:41:45.637Z,29.40
2022-12-31T09:44:51.577Z,31.90
2022-12-31T09:47:51.320Z,27.63
2022-12-31T09:50:34.828Z,24.55
2022-12-31T09:53:18.927Z,26.83
2022-12-31T09:55:53.049Z,27.15
2022-12-31T09:58:42.069Z,27.10
2022-12-31T10:01:23.830Z,25.65
2022-12-31T10:06:49.022Z,26.23
2022-12-31T10:09:28.372Z,25.98
2022-12-31T10:12:16.658Z,26.77
2022-12-31T10:15:04.934Z,27.17
2022-12-31T10:17:49.184Z,24.42
2022-12-31T10:20:30.480Z,20.88
2022-12-31T10:26:09.015Z,21.00
2022-12-31T10:28:49.051Z,21.52
2022-12-31T10:31:24.333Z,21.55
2022-12-31T10:34:01.308Z,17.40
2022-12-31T10:36:43.556Z,19.42
2022-12-31T10:39:24.605Z,19.20
2022-12-31T10:42:33.440Z,22.33
2022-12-31T10:45:39.834Z,24.73
2022-12-31T10:48:52.536Z,20.92
2022-12-31T10:52:13.068Z,22.52
2022-12-31T10:55:15.945Z,21.30
2022-12-31T10:58:04.371Z,23.02
2022-12-31T11:00:39.718Z,26.25
2022-12-31T11:03:52.465Z,24.90
2022-12-31T18:25:20.311Z,57.95
2022-12-31T18:27:48.883Z,51.40
2022-12-31T18:30:17.406Z,51.70
2022-12-31T18:32:46.250Z,55.75
2022-12-31T18:35:33.263Z,53.45
2022-12-31T18:38:04.225Z,59.97
2022-12-31T18:40:33.639Z,66.70
2022-12-31T18:43:04.919Z,58.58
2022-12-31T18:45:35.455Z,48.63
2022-12-31T18:48:03.120Z,48.53
2022-12-31T18:50:31.271Z,46.65
2022-12-31T18:52:59.507Z,51.55
2022-12-31T18:55:37.714Z,46.63
2022-12-31T18:58:05.953Z,49.03
2022-12-31T19:00:34.441Z,44.95
2022-12-31T19:03:03.296Z,48.03
2022-12-31T19:05:33.772Z,47.15
2022-12-31T19:08:01.347Z,46.70
2022-12-31T19:10:34.022Z,51.65
2022-12-31T19:13:01.906Z,44.53
2022-12-31T19:15:31.805Z,45.60
2022-12-31T19:18:00.477Z,43.97
2022-12-31T19:20:29.748Z,42.25
2022-12-31T19:22:57.895Z,46.15
2022-12-31T19:25:28.578Z,45.28
2022-12-31T19:27:57.909Z,47.70
2022-12-31T19:30:28.346Z,52.38
2022-12-31T19:32:57.559Z,53.22
2022-12-31T19:35:27.074Z,49.58
2022-12-31T19:37:55.771Z,49.70
2022-12-31T19:40:25.543Z,51.45
2022-12-31T19:42:54.410Z,50.25
2022-12-31T19:45:26.612Z,50.30
2022-12-31T19:47:56.043Z,47.00
2022-12-31T19:50:25.364Z,47.72
2022-12-31T19:52:55.118Z,46.83
2022-12-31T19:55:24.444Z,47.15
2022-12-31T19:57:52.550Z,48.70
2022-12-31T20:00:21.592Z,46.00
2022-12-31T20:02:51.084Z,44.60
2022-12-31T20:05:18.906Z,41.58
2022-12-31T20:07:46.688Z,41.70
2022-12-31T20:10:14.644Z,39.53
2022-12-31T20:12:44.620Z,41.53
2022-12-31T20:15:12.631Z,39.22
2022-12-31T20:17:40.500Z,39.15
2022-12-31T20:20:10.431Z,38.67
2022-12-31T20:22:38.178Z,40.70
2022-12-31T20:25:06.978Z,41.30
2022-12-31T20:27:35.070Z,41.63
2022-12-31T20:30:02.910Z,42.78
2022-12-31T20:32:31.055Z,42.15
2022-12-31T20:34:58.610Z,40.75
2022-12-31T20:37:28.171Z,41.83
2022-12-31T20:39:55.912Z,42.20
2022-12-31T20:42:23.485Z,51.20
2022-12-31T20:44:51.359Z,49.92
2022-12-31T20:47:19.338Z,46.72
2022-12-31T20:50:12.923Z,38.25
2022-12-31T20:52:37.890Z,36.33
2022-12-31T20:55:08.879Z,39.22
2022-12-31T20:57:36.734Z,38.33
2022-12-31T21:00:05.595Z,38.58
2022-12-31T21:02:42.115Z,42.30
2022-12-31T21:05:11.220Z,40.30
2022-12-31T21:07:40.809Z,41.22
2022-12-31T21:10:09.132Z,39.72
2022-12-31T21:12:37.237Z,39.47
2022-12-31T21:15:05.802Z,38.17
2022-12-31T21:17:33.816Z,38.63
2022-12-31T21:20:01.866Z,36.70
2022-12-31T21:22:29.951Z,34.67
2022-12-31T21:24:59.364Z,37.75
2022-12-31T21:27:27.845Z,37.90
2022-12-31T21:30:17.568Z,37.25
2022-12-31T21:32:44.387Z,37.58
2022-12-31T21:38:01.522Z,39.10
2022-12-31T21:40:31.389Z,37.95
2022-12-31T21:43:00.184Z,37.70
2022-12-31T21:45:28.059Z,37.10
2022-12-31T21:47:58.827Z,40.28
2022-12-31T21:50:29.947Z,37.97
2022-12-31T21:52:57.698Z,38.72
2022-12-31T21:55:25.521Z,38.45
2022-12-31T22:00:43.496Z,38.22
2022-12-31T22:03:12.629Z,39.38
2022-12-31T22:05:46.823Z,38.30
2022-12-31T22:08:14.755Z,39.30
2022-12-31T22:10:50.314Z,39.80
2022-12-31T22:13:22.358Z,38.42
2022-12-31T22:15:58.710Z,38.95
2022-12-31T22:18:30.581Z,37.53
2022-12-31T22:21:02.420Z,39.00
2022-12-31T22:23:31.186Z,37.95
2022-12-31T22:25:58.819Z,36.95
2022-12-31T22:28:37.965Z,35.78
2022-12-31T22:31:07.997Z,35.47
2022-12-31T22:33:36.189Z,38.40
2022-12-31T22:36:06.970Z,40.33
2022-12-31T22:38:35.186Z,35.88
2022-12-31T22:41:05.108Z,38.00
2022-12-31T22:43:36.971Z,38.58
2022-12-31T22:46:10.025Z,35.15
2022-12-31T22:48:38.090Z,33.35
2022-12-31T22:51:06.703Z,35.78
2022-12-31T22:53:38.400Z,36.92
2022-12-31T22:56:06.736Z,34.33
2022-12-31T22:58:36.926Z,34.63
2022-12-31T23:01:05.849Z,34.95
2022-12-31T23:03:34.217Z,41.30
2022-12-31T23:06:01.793Z,35.75
2022-12-31T23:08:30.435Z,33.83
2022-12-31T23:10:58.909Z,32.72
2022-12-31T23:13:27.976Z,32.70
2022-12-31T23:15:57.605Z,32.13
2022-12-31T23:18:25.631Z,33.42
2022-12-31T23:20:53.215Z,31.88
2022-12-31T23:23:21.147Z,32.00
2022-12-31T23:25:50.716Z,32.28
2022-12-31T23:28:20.809Z,31.98
2022-12-31T23:30:50.343Z,31.58
2022-12-31T23:33:21.339Z,32.05
2022-12-31T23:35:49.141Z,33.05
2022-12-31T23:38:18.160Z,32.92
2022-12-31T23:40:46.258Z,30.48
2022-12-31T23:43:20.572Z,31.60
2022-12-31T23:45:49.131Z,31.45
2022-12-31T23:48:19.613Z,32.15
2022-12-31T23:50:53.102Z,34.97
2022-12-31T23:53:22.092Z,35.72
2022-12-31T23:55:50.505Z,34.20
2022-12-31T23:58:18.162Z,33.83
